sensor_id;sensor_type;location;lat;lon;timestamp;P1;durP1;ratioP1;P2;durP2;ratioP2
36195;SDS011;22237;51.974;4.616;2023-04-10T00:02:11;12.80;;;6.20;;
36195;SDS011;22237;51.974;4.616;2023-04-10T00:04:36;11.90;;;6.47;;
36195;SDS011;22237;51.974;4.616;2023-04-10T00:07:01;12.03;;;6.10;;
36195;SDS011;22237;51.974;4.616;2023-04-10T00:09:27;15.30;;;6.67;;
36195;SDS011;22237;51.974;4.616;2023-04-10T00:11:53;12.20;;;6.25;;
36195;SDS011;22237;51.974;4.616;2023-04-10T00:14:18;15.90;;;6.97;;
36195;SDS011;22237;51.974;4.616;2023-04-10T00:16:47;15.45;;;6.10;;
36195;SDS011;22237;51.974;4.616;2023-04-10T00:19:12;11.30;;;5.38;;
36195;SDS011;22237;51.974;4.616;2023-04-10T00:21:37;12.35;;;6.15;;
36195;SDS011;22237;51.974;4.616;2023-04-10T00:24:03;12.57;;;5.77;;
36195;SDS011;22237;51.974;4.616;2023-04-10T00:26:29;11.15;;;6.10;;
36195;SDS011;22237;51.974;4.616;2023-04-10T00:28:54;11.63;;;6.15;;
36195;SDS011;22237;51.974;4.616;2023-04-10T00:31:20;11.30;;;5.57;;
36195;SDS011;22237;51.974;4.616;2023-04-10T00:33:45;11.37;;;5.97;;
36195;SDS011;22237;51.974;4.616;2023-04-10T00:36:10;15.87;;;6.50;;
36195;SDS011;22237;51.974;4.616;2023-04-10T00:38:35;13.43;;;5.82;;
36195;SDS011;22237;51.974;4.616;2023-04-10T00:41:01;13.65;;;6.07;;
36195;SDS011;22237;51.974;4.616;2023-04-10T00:43:27;11.02;;;5.30;;
36195;SDS011;22237;51.974;4.616;2023-04-10T00:45:52;12.05;;;6.38;;
36195;SDS011;22237;51.974;4.616;2023-04-10T00:48:17;15.65;;;7.03;;
36195;SDS011;22237;51.974;4.616;2023-04-10T00:50:44;13.90;;;6.20;;
36195;SDS011;22237;51.974;4.616;2023-04-10T00:53:09;12.65;;;6.07;;
36195;SDS011;22237;51.974;4.616;2023-04-10T00:55:35;10.73;;;5.50;;
36195;SDS011;22237;51.974;4.616;2023-04-10T00:58:00;14.68;;;6.35;;
36195;SDS011;22237;51.974;4.616;2023-04-10T01:00:26;12.75;;;5.78;;
36195;SDS011;22237;51.974;4.616;2023-04-10T01:02:52;11.70;;;6.18;;
36195;SDS011;22237;51.974;4.616;2023-04-10T01:05:17;12.07;;;6.55;;
36195;SDS011;22237;51.974;4.616;2023-04-10T01:10:19;14.00;;;6.57;;
36195;SDS011;22237;51.974;4.616;2023-04-10T01:15:21;15.07;;;7.25;;
36195;SDS011;22237;51.974;4.616;2023-04-10T01:20:22;16.90;;;6.30;;
36195;SDS011;22237;51.974;4.616;2023-04-10T01:30:43;13.48;;;6.18;;
36195;SDS011;22237;51.974;4.616;2023-04-10T01:33:09;10.18;;;5.10;;
36195;SDS011;22237;51.974;4.616;2023-04-10T01:35:35;11.80;;;5.72;;
36195;SDS011;22237;51.974;4.616;2023-04-10T01:38:01;12.15;;;6.25;;
36195;SDS011;22237;51.974;4.616;2023-04-10T01:40:28;12.82;;;6.55;;
36195;SDS011;22237;51.974;4.616;2023-04-10T01:42:54;12.57;;;6.47;;
36195;SDS011;22237;51.974;4.616;2023-04-10T01:45:20;16.38;;;5.88;;
36195;SDS011;22237;51.974;4.616;2023-04-10T01:47:46;9.98;;;5.68;;
36195;SDS011;22237;51.974;4.616;2023-04-10T01:50:12;13.30;;;5.60;;
36195;SDS011;22237;51.974;4.616;2023-04-10T01:52:38;11.85;;;5.75;;
36195;SDS011;22237;51.974;4.616;2023-04-10T01:55:04;11.02;;;5.55;;
36195;SDS011;22237;51.974;4.616;2023-04-10T01:57:30;11.13;;;5.53;;
36195;SDS011;22237;51.974;4.616;2023-04-10T01:59:56;13.88;;;5.97;;
36195;SDS011;22237;51.974;4.616;2023-04-10T02:02:21;10.18;;;5.47;;
36195;SDS011;22237;51.974;4.616;2023-04-10T02:04:46;11.55;;;6.03;;
36195;SDS011;22237;51.974;4.616;2023-04-10T02:13:25;13.77;;;6.35;;
36195;SDS011;22237;51.974;4.616;2023-04-10T02:15:31;13.88;;;5.90;;
36195;SDS011;22237;51.974;4.616;2023-04-10T02:18:00;11.38;;;5.82;;
36195;SDS011;22237;51.974;4.616;2023-04-10T02:20:28;11.10;;;5.55;;
36195;SDS011;22237;51.974;4.616;2023-04-10T02:22:53;10.07;;;5.60;;
36195;SDS011;22237;51.974;4.616;2023-04-10T02:25:19;12.82;;;6.18;;
36195;SDS011;22237;51.974;4.616;2023-04-10T02:27:44;11.30;;;5.80;;
36195;SDS011;22237;51.974;4.616;2023-04-10T02:30:10;11.00;;;6.15;;
36195;SDS011;22237;51.974;4.616;2023-04-10T02:32:35;15.40;;;5.75;;
36195;SDS011;22237;51.974;4.616;2023-04-10T02:35:00;11.98;;;5.50;;
36195;SDS011;22237;51.974;4.616;2023-04-10T02:37:26;11.38;;;5.75;;
36195;SDS011;22237;51.974;4.616;2023-04-10T02:39:52;13.83;;;5.63;;
36195;SDS011;22237;51.974;4.616;2023-04-10T02:42:18;11.80;;;5.35;;
36195;SDS011;22237;51.974;4.616;2023-04-10T02:44:44;11.80;;;5.68;;
36195;SDS011;22237;51.974;4.616;2023-04-10T02:47:09;16.13;;;5.97;;
36195;SDS011;22237;51.974;4.616;2023-04-10T02:49:34;10.52;;;5.45;;
36195;SDS011;22237;51.974;4.616;2023-04-10T02:52:00;9.82;;;5.20;;
36195;SDS011;22237;51.974;4.616;2023-04-10T02:54:25;11.57;;;5.18;;
36195;SDS011;22237;51.974;4.616;2023-04-10T02:56:50;12.02;;;5.90;;
36195;SDS011;22237;51.974;4.616;2023-04-10T02:59:15;15.00;;;5.10;;
36195;SDS011;22237;51.974;4.616;2023-04-10T03:01:41;13.25;;;5.50;;
36195;SDS011;22237;51.974;4.616;2023-04-10T03:04:06;13.98;;;5.68;;
36195;SDS011;22237;51.974;4.616;2023-04-10T03:06:32;12.50;;;6.40;;
36195;SDS011;22237;51.974;4.616;2023-04-10T03:08:57;9.40;;;4.55;;
36195;SDS011;22237;51.974;4.616;2023-04-10T03:11:22;13.63;;;5.00;;
36195;SDS011;22237;51.974;4.616;2023-04-10T03:13:48;8.23;;;4.43;;
36195;SDS011;22237;51.974;4.616;2023-04-10T03:16:13;8.98;;;5.15;;
36195;SDS011;22237;51.974;4.616;2023-04-10T03:18:39;9.15;;;4.25;;
36195;SDS011;22237;51.974;4.616;2023-04-10T03:21:04;7.63;;;4.60;;
36195;SDS011;22237;51.974;4.616;2023-04-10T03:23:29;9.52;;;4.68;;
36195;SDS011;22237;51.974;4.616;2023-04-10T03:25:54;7.28;;;4.95;;
36195;SDS011;22237;51.974;4.616;2023-04-10T03:28:20;10.15;;;4.75;;
36195;SDS011;22237;51.974;4.616;2023-04-10T03:30:45;7.70;;;4.32;;
36195;SDS011;22237;51.974;4.616;2023-04-10T03:33:10;8.30;;;4.15;;
36195;SDS011;22237;51.974;4.616;2023-04-10T03:35:36;7.68;;;4.18;;
36195;SDS011;22237;51.974;4.616;2023-04-10T03:38:01;8.43;;;4.50;;
36195;SDS011;22237;51.974;4.616;2023-04-10T03:40:26;6.47;;;3.80;;
36195;SDS011;22237;51.974;4.616;2023-04-10T03:42:51;8.25;;;4.63;;
36195;SDS011;22237;51.974;4.616;2023-04-10T03:45:17;8.38;;;4.60;;
36195;SDS011;22237;51.974;4.616;2023-04-10T03:47:42;8.50;;;3.90;;
36195;SDS011;22237;51.974;4.616;2023-04-10T03:50:07;10.45;;;4.53;;
36195;SDS011;22237;51.974;4.616;2023-04-10T03:52:32;7.22;;;3.50;;
36195;SDS011;22237;51.974;4.616;2023-04-10T03:54:58;7.00;;;3.50;;
36195;SDS011;22237;51.974;4.616;2023-04-10T03:57:23;5.90;;;3.40;;
36195;SDS011;22237;51.974;4.616;2023-04-10T03:59:48;6.97;;;3.75;;
36195;SDS011;22237;51.974;4.616;2023-04-10T04:02:13;9.10;;;4.57;;
36195;SDS011;22237;51.974;4.616;2023-04-10T04:04:39;8.02;;;4.30;;
36195;SDS011;22237;51.974;4.616;2023-04-10T04:07:04;8.05;;;4.35;;
36195;SDS011;22237;51.974;4.616;2023-04-10T04:09:29;8.73;;;3.90;;
36195;SDS011;22237;51.974;4.616;2023-04-10T04:11:55;7.07;;;4.05;;
36195;SDS011;22237;51.974;4.616;2023-04-10T04:14:20;8.02;;;4.78;;
36195;SDS011;22237;51.974;4.616;2023-04-10T04:16:45;6.68;;;3.70;;
36195;SDS011;22237;51.974;4.616;2023-04-10T04:19:11;8.98;;;3.65;;
36195;SDS011;22237;51.974;4.616;2023-04-10T04:21:36;6.67;;;3.67;;
36195;SDS011;22237;51.974;4.616;2023-04-10T04:24:01;7.72;;;3.80;;
36195;SDS011;22237;51.974;4.616;2023-04-10T04:26:26;6.45;;;4.30;;
36195;SDS011;22237;51.974;4.616;2023-04-10T04:28:52;7.30;;;4.72;;
36195;SDS011;22237;51.974;4.616;2023-04-10T04:31:17;7.03;;;3.30;;
36195;SDS011;22237;51.974;4.616;2023-04-10T04:33:42;7.27;;;3.70;;
36195;SDS011;22237;51.974;4.616;2023-04-10T04:36:07;5.25;;;2.45;;
36195;SDS011;22237;51.974;4.616;2023-04-10T04:38:32;6.10;;;3.60;;
36195;SDS011;22237;51.974;4.616;2023-04-10T04:40:58;8.20;;;3.83;;
36195;SDS011;22237;51.974;4.616;2023-04-10T04:43:23;7.82;;;3.70;;
36195;SDS011;22237;51.974;4.616;2023-04-10T04:45:48;7.30;;;3.70;;
36195;SDS011;22237;51.974;4.616;2023-04-10T04:48:13;8.15;;;3.60;;
36195;SDS011;22237;51.974;4.616;2023-04-10T04:50:39;7.73;;;3.93;;
36195;SDS011;22237;51.974;4.616;2023-04-10T04:53:04;6.82;;;3.80;;
36195;SDS011;22237;51.974;4.616;2023-04-10T04:55:30;8.25;;;3.85;;
36195;SDS011;22237;51.974;4.616;2023-04-10T04:57:55;8.63;;;3.73;;
36195;SDS011;22237;51.974;4.616;2023-04-10T05:00:20;7.47;;;4.23;;
36195;SDS011;22237;51.974;4.616;2023-04-10T05:02:46;6.88;;;3.70;;
36195;SDS011;22237;51.974;4.616;2023-04-10T05:05:11;6.43;;;3.60;;
36195;SDS011;22237;51.974;4.616;2023-04-10T05:07:36;5.50;;;3.60;;
36195;SDS011;22237;51.974;4.616;2023-04-10T05:10:01;5.27;;;3.73;;
36195;SDS011;22237;51.974;4.616;2023-04-10T05:12:26;7.45;;;3.95;;
36195;SDS011;22237;51.974;4.616;2023-04-10T05:14:52;7.53;;;4.37;;
36195;SDS011;22237;51.974;4.616;2023-04-10T05:17:17;8.17;;;3.93;;
36195;SDS011;22237;51.974;4.616;2023-04-10T05:19:42;12.87;;;4.53;;
36195;SDS011;22237;51.974;4.616;2023-04-10T05:22:07;7.68;;;4.40;;
36195;SDS011;22237;51.974;4.616;2023-04-10T05:24:33;6.78;;;3.60;;
36195;SDS011;22237;51.974;4.616;2023-04-10T05:26:58;6.18;;;3.58;;
36195;SDS011;22237;51.974;4.616;2023-04-10T05:29:23;7.73;;;3.73;;
36195;SDS011;22237;51.974;4.616;2023-04-10T05:31:49;7.57;;;4.18;;
36195;SDS011;22237;51.974;4.616;2023-04-10T05:34:15;7.68;;;4.10;;
36195;SDS011;22237;51.974;4.616;2023-04-10T05:36:41;6.97;;;3.80;;
36195;SDS011;22237;51.974;4.616;2023-04-10T05:39:06;7.93;;;3.92;;
36195;SDS011;22237;51.974;4.616;2023-04-10T05:41:31;8.60;;;4.47;;
36195;SDS011;22237;51.974;4.616;2023-04-10T05:43:56;6.93;;;4.35;;
36195;SDS011;22237;51.974;4.616;2023-04-10T05:46:21;8.47;;;4.53;;
36195;SDS011;22237;51.974;4.616;2023-04-10T05:48:47;6.20;;;3.90;;
36195;SDS011;22237;51.974;4.616;2023-04-10T05:51:12;9.55;;;4.32;;
36195;SDS011;22237;51.974;4.616;2023-04-10T05:53:37;7.93;;;3.90;;
36195;SDS011;22237;51.974;4.616;2023-04-10T05:56:03;7.53;;;4.50;;
36195;SDS011;22237;51.974;4.616;2023-04-10T05:58:28;8.23;;;4.50;;
36195;SDS011;22237;51.974;4.616;2023-04-10T06:00:53;9.33;;;4.00;;
36195;SDS011;22237;51.974;4.616;2023-04-10T06:03:20;6.25;;;3.97;;
36195;SDS011;22237;51.974;4.616;2023-04-10T06:05:45;6.68;;;3.70;;
36195;SDS011;22237;51.974;4.616;2023-04-10T06:08:10;8.55;;;4.15;;
36195;SDS011;22237;51.974;4.616;2023-04-10T06:10:36;7.03;;;3.88;;
36195;SDS011;22237;51.974;4.616;2023-04-10T06:13:01;6.25;;;4.00;;
36195;SDS011;22237;51.974;4.616;2023-04-10T06:15:26;8.13;;;3.77;;
36195;SDS011;22237;51.974;4.616;2023-04-10T06:17:52;8.27;;;4.30;;
36195;SDS011;22237;51.974;4.616;2023-04-10T06:20:18;6.95;;;3.45;;
36195;SDS011;22237;51.974;4.616;2023-04-10T06:22:43;6.95;;;4.35;;
36195;SDS011;22237;51.974;4.616;2023-04-10T06:25:08;7.70;;;4.17;;
36195;SDS011;22237;51.974;4.616;2023-04-10T06:27:33;8.38;;;3.88;;
36195;SDS011;22237;51.974;4.616;2023-04-10T06:30:01;9.70;;;4.20;;
36195;SDS011;22237;51.974;4.616;2023-04-10T06:32:27;7.90;;;4.30;;
36195;SDS011;22237;51.974;4.616;2023-04-10T06:34:52;10.65;;;4.50;;
36195;SDS011;22237;51.974;4.616;2023-04-10T06:37:17;9.93;;;4.38;;
36195;SDS011;22237;51.974;4.616;2023-04-10T06:39:42;7.45;;;4.20;;
36195;SDS011;22237;51.974;4.616;2023-04-10T06:42:07;8.73;;;4.57;;
36195;SDS011;22237;51.974;4.616;2023-04-10T06:44:33;7.45;;;4.15;;
36195;SDS011;22237;51.974;4.616;2023-04-10T06:46:58;4.73;;;3.67;;
36195;SDS011;22237;51.974;4.616;2023-04-10T06:49:23;7.82;;;4.07;;
36195;SDS011;22237;51.974;4.616;2023-04-10T06:51:48;8.52;;;4.28;;
36195;SDS011;22237;51.974;4.616;2023-04-10T06:54:14;10.07;;;4.50;;
36195;SDS011;22237;51.974;4.616;2023-04-10T06:56:39;9.00;;;4.13;;
36195;SDS011;22237;51.974;4.616;2023-04-10T06:59:04;9.00;;;5.32;;
36195;SDS011;22237;51.974;4.616;2023-04-10T07:01:30;11.65;;;4.85;;
36195;SDS011;22237;51.974;4.616;2023-04-10T07:03:55;13.90;;;4.57;;
36195;SDS011;22237;51.974;4.616;2023-04-10T07:06:20;9.00;;;3.80;;
36195;SDS011;22237;51.974;4.616;2023-04-10T07:08:47;10.18;;;4.65;;
36195;SDS011;22237;51.974;4.616;2023-04-10T07:11:12;8.43;;;4.20;;
36195;SDS011;22237;51.974;4.616;2023-04-10T07:16:40;8.40;;;4.35;;
36195;SDS011;22237;51.974;4.616;2023-04-10T07:19:06;6.53;;;3.72;;
36195;SDS011;22237;51.974;4.616;2023-04-10T07:21:31;7.63;;;4.07;;
36195;SDS011;22237;51.974;4.616;2023-04-10T07:23:57;7.32;;;3.70;;
36195;SDS011;22237;51.974;4.616;2023-04-10T07:26:22;8.50;;;4.22;;
36195;SDS011;22237;51.974;4.616;2023-04-10T07:28:47;7.05;;;4.10;;
36195;SDS011;22237;51.974;4.616;2023-04-10T07:31:12;7.15;;;3.75;;
36195;SDS011;22237;51.974;4.616;2023-04-10T07:33:38;6.70;;;3.50;;
36195;SDS011;22237;51.974;4.616;2023-04-10T07:36:03;6.20;;;3.67;;
36195;SDS011;22237;51.974;4.616;2023-04-10T07:38:30;6.22;;;4.15;;
36195;SDS011;22237;51.974;4.616;2023-04-10T07:40:55;7.93;;;4.10;;
36195;SDS011;22237;51.974;4.616;2023-04-10T07:43:21;7.10;;;3.83;;
36195;SDS011;22237;51.974;4.616;2023-04-10T07:45:46;6.80;;;4.17;;
36195;SDS011;22237;51.974;4.616;2023-04-10T07:48:11;8.47;;;3.97;;
36195;SDS011;22237;51.974;4.616;2023-04-10T07:50:37;11.68;;;4.22;;
36195;SDS011;22237;51.974;4.616;2023-04-10T07:53:02;9.07;;;3.70;;
36195;SDS011;22237;51.974;4.616;2023-04-10T07:55:31;9.75;;;4.75;;
36195;SDS011;22237;51.974;4.616;2023-04-10T07:57:56;8.20;;;4.13;;
36195;SDS011;22237;51.974;4.616;2023-04-10T08:00:22;7.40;;;4.20;;
36195;SDS011;22237;51.974;4.616;2023-04-10T08:02:47;7.13;;;4.18;;
36195;SDS011;22237;51.974;4.616;2023-04-10T08:05:40;10.55;;;4.53;;
36195;SDS011;22237;51.974;4.616;2023-04-10T08:08:06;8.70;;;3.85;;
36195;SDS011;22237;51.974;4.616;2023-04-10T08:10:37;6.32;;;3.92;;
36195;SDS011;22237;51.974;4.616;2023-04-10T08:13:26;6.25;;;3.80;;
36195;SDS011;22237;51.974;4.616;2023-04-10T08:16:02;6.63;;;3.90;;
36195;SDS011;22237;51.974;4.616;2023-04-10T08:18:29;10.38;;;4.45;;
36195;SDS011;22237;51.974;4.616;2023-04-10T08:20:54;5.97;;;3.53;;
36195;SDS011;22237;51.974;4.616;2023-04-10T08:23:20;8.10;;;4.17;;
36195;SDS011;22237;51.974;4.616;2023-04-10T08:25:45;6.47;;;3.73;;
36195;SDS011;22237;51.974;4.616;2023-04-10T08:28:10;8.15;;;4.18;;
36195;SDS011;22237;51.974;4.616;2023-04-10T08:30:35;9.48;;;4.03;;
36195;SDS011;22237;51.974;4.616;2023-04-10T08:33:00;7.90;;;3.93;;
36195;SDS011;22237;51.974;4.616;2023-04-10T08:35:26;9.10;;;4.10;;
36195;SDS011;22237;51.974;4.616;2023-04-10T08:37:51;8.80;;;4.23;;
36195;SDS011;22237;51.974;4.616;2023-04-10T08:40:16;10.32;;;4.47;;
36195;SDS011;22237;51.974;4.616;2023-04-10T08:42:41;7.40;;;3.60;;
36195;SDS011;22237;51.974;4.616;2023-04-10T08:45:07;7.77;;;4.07;;
36195;SDS011;22237;51.974;4.616;2023-04-10T08:47:34;5.35;;;3.42;;
36195;SDS011;22237;51.974;4.616;2023-04-10T08:50:06;9.70;;;4.65;;
36195;SDS011;22237;51.974;4.616;2023-04-10T08:52:33;7.45;;;3.70;;
36195;SDS011;22237;51.974;4.616;2023-04-10T08:54:59;8.73;;;4.47;;
36195;SDS011;22237;51.974;4.616;2023-04-10T08:57:26;9.50;;;4.85;;
36195;SDS011;22237;51.974;4.616;2023-04-10T08:59:52;9.93;;;4.60;;
36195;SDS011;22237;51.974;4.616;2023-04-10T09:02:18;10.40;;;4.10;;
36195;SDS011;22237;51.974;4.616;2023-04-10T09:04:45;9.25;;;3.80;;
36195;SDS011;22237;51.974;4.616;2023-04-10T09:07:11;7.97;;;4.30;;
36195;SDS011;22237;51.974;4.616;2023-04-10T09:09:36;8.10;;;4.30;;
36195;SDS011;22237;51.974;4.616;2023-04-10T09:12:01;8.30;;;4.07;;
36195;SDS011;22237;51.974;4.616;2023-04-10T09:16:53;8.55;;;4.53;;
36195;SDS011;22237;51.974;4.616;2023-04-10T09:19:33;6.80;;;3.63;;
36195;SDS011;22237;51.974;4.616;2023-04-10T09:21:59;6.53;;;3.88;;
36195;SDS011;22237;51.974;4.616;2023-04-10T09:24:24;10.77;;;5.27;;
36195;SDS011;22237;51.974;4.616;2023-04-10T09:26:50;7.13;;;4.72;;
36195;SDS011;22237;51.974;4.616;2023-04-10T09:29:15;13.23;;;5.78;;
36195;SDS011;22237;51.974;4.616;2023-04-10T09:31:43;9.77;;;5.90;;
36195;SDS011;22237;51.974;4.616;2023-04-10T09:34:10;13.40;;;6.53;;
36195;SDS011;22237;51.974;4.616;2023-04-10T09:36:35;14.85;;;7.30;;
36195;SDS011;22237;51.974;4.616;2023-04-10T09:39:01;17.02;;;7.85;;
36195;SDS011;22237;51.974;4.616;2023-04-10T09:41:27;18.02;;;7.50;;
36195;SDS011;22237;51.974;4.616;2023-04-10T09:44:05;20.55;;;7.88;;
36195;SDS011;22237;51.974;4.616;2023-04-10T09:46:31;16.17;;;7.10;;
36195;SDS011;22237;51.974;4.616;2023-04-10T09:48:58;19.23;;;8.15;;
36195;SDS011;22237;51.974;4.616;2023-04-10T09:51:29;23.90;;;9.63;;
36195;SDS011;22237;51.974;4.616;2023-04-10T09:53:54;23.77;;;10.68;;
36195;SDS011;22237;51.974;4.616;2023-04-10T09:56:21;40.60;;;12.00;;
36195;SDS011;22237;51.974;4.616;2023-04-10T09:58:48;31.83;;;10.88;;
36195;SDS011;22237;51.974;4.616;2023-04-10T10:01:15;27.70;;;10.68;;
36195;SDS011;22237;51.974;4.616;2023-04-10T10:03:41;24.70;;;11.02;;
36195;SDS011;22237;51.974;4.616;2023-04-10T10:06:07;27.92;;;10.05;;
36195;SDS011;22237;51.974;4.616;2023-04-10T10:08:35;21.33;;;9.15;;
36195;SDS011;22237;51.974;4.616;2023-04-10T10:11:01;23.23;;;8.60;;
36195;SDS011;22237;51.974;4.616;2023-04-10T10:13:33;19.90;;;7.88;;
36195;SDS011;22237;51.974;4.616;2023-04-10T10:16:02;16.20;;;7.75;;
36195;SDS011;22237;51.974;4.616;2023-04-10T10:18:34;16.08;;;7.25;;
36195;SDS011;22237;51.974;4.616;2023-04-10T10:21:01;17.17;;;7.53;;
36195;SDS011;22237;51.974;4.616;2023-04-10T10:23:26;17.17;;;8.00;;
36195;SDS011;22237;51.974;4.616;2023-04-10T10:25:52;16.65;;;7.80;;
36195;SDS011;22237;51.974;4.616;2023-04-10T10:28:18;18.42;;;8.25;;
36195;SDS011;22237;51.974;4.616;2023-04-10T10:30:43;16.55;;;8.93;;
36195;SDS011;22237;51.974;4.616;2023-04-10T10:33:09;17.52;;;7.97;;
36195;SDS011;22237;51.974;4.616;2023-04-10T10:35:35;19.02;;;8.35;;
36195;SDS011;22237;51.974;4.616;2023-04-10T10:38:01;17.55;;;7.97;;
36195;SDS011;22237;51.974;4.616;2023-04-10T10:40:30;20.73;;;8.88;;
36195;SDS011;22237;51.974;4.616;2023-04-10T10:45:29;21.92;;;9.07;;
36195;SDS011;22237;51.974;4.616;2023-04-10T10:47:56;14.63;;;7.40;;
36195;SDS011;22237;51.974;4.616;2023-04-10T10:50:21;16.27;;;7.97;;
36195;SDS011;22237;51.974;4.616;2023-04-10T10:52:51;17.77;;;6.78;;
36195;SDS011;22237;51.974;4.616;2023-04-10T11:00:16;16.85;;;7.40;;
36195;SDS011;22237;51.974;4.616;2023-04-10T11:02:41;22.05;;;7.85;;
36195;SDS011;22237;51.974;4.616;2023-04-10T11:05:06;26.07;;;9.20;;
36195;SDS011;22237;51.974;4.616;2023-04-10T11:10:15;23.27;;;9.55;;
36195;SDS011;22237;51.974;4.616;2023-04-10T11:15:36;15.32;;;7.28;;
36195;SDS011;22237;51.974;4.616;2023-04-10T11:18:01;15.00;;;7.03;;
36195;SDS011;22237;51.974;4.616;2023-04-10T11:20:26;9.33;;;5.50;;
36195;SDS011;22237;51.974;4.616;2023-04-10T11:23:08;10.18;;;5.50;;
36195;SDS011;22237;51.974;4.616;2023-04-10T11:25:47;8.88;;;5.28;;
36195;SDS011;22237;51.974;4.616;2023-04-10T11:31:19;12.07;;;5.40;;
36195;SDS011;22237;51.974;4.616;2023-04-10T11:33:46;10.25;;;5.22;;
36195;SDS011;22237;51.974;4.616;2023-04-10T11:36:15;8.20;;;5.03;;
36195;SDS011;22237;51.974;4.616;2023-04-10T11:38:52;9.73;;;4.80;;
36195;SDS011;22237;51.974;4.616;2023-04-10T11:41:17;9.60;;;4.35;;
36195;SDS011;22237;51.974;4.616;2023-04-10T11:43:42;12.03;;;4.60;;
36195;SDS011;22237;51.974;4.616;2023-04-10T11:46:07;6.13;;;4.27;;
36195;SDS011;22237;51.974;4.616;2023-04-10T11:48:34;8.45;;;3.40;;
36195;SDS011;22237;51.974;4.616;2023-04-10T11:51:10;6.28;;;3.40;;
36195;SDS011;22237;51.974;4.616;2023-04-10T11:53:36;7.70;;;4.30;;
36195;SDS011;22237;51.974;4.616;2023-04-10T11:56:01;6.03;;;4.13;;
36195;SDS011;22237;51.974;4.616;2023-04-10T11:58:29;10.65;;;5.05;;
36195;SDS011;22237;51.974;4.616;2023-04-10T12:01:01;6.80;;;4.05;;
36195;SDS011;22237;51.974;4.616;2023-04-10T12:03:31;10.07;;;4.90;;
36195;SDS011;22237;51.974;4.616;2023-04-10T12:05:56;9.25;;;4.25;;
36195;SDS011;22237;51.974;4.616;2023-04-10T12:08:28;13.68;;;4.35;;
36195;SDS011;22237;51.974;4.616;2023-04-10T12:10:54;10.07;;;4.30;;
36195;SDS011;22237;51.974;4.616;2023-04-10T12:13:24;8.85;;;4.38;;
36195;SDS011;22237;51.974;4.616;2023-04-10T12:15:49;8.93;;;4.88;;
36195;SDS011;22237;51.974;4.616;2023-04-10T12:18:14;6.97;;;3.90;;
36195;SDS011;22237;51.974;4.616;2023-04-10T12:20:39;6.80;;;3.78;;
36195;SDS011;22237;51.974;4.616;2023-04-10T12:23:05;8.32;;;4.40;;
36195;SDS011;22237;51.974;4.616;2023-04-10T12:25:30;7.68;;;4.28;;
36195;SDS011;22237;51.974;4.616;2023-04-10T12:27:56;10.07;;;4.70;;
36195;SDS011;22237;51.974;4.616;2023-04-10T12:30:21;7.35;;;4.05;;
36195;SDS011;22237;51.974;4.616;2023-04-10T12:32:49;7.85;;;4.47;;
36195;SDS011;22237;51.974;4.616;2023-04-10T12:35:15;9.68;;;4.50;;
36195;SDS011;22237;51.974;4.616;2023-04-10T12:40:12;6.68;;;4.03;;
36195;SDS011;22237;51.974;4.616;2023-04-10T12:42:40;9.20;;;4.72;;
36195;SDS011;22237;51.974;4.616;2023-04-10T12:45:06;12.38;;;5.07;;
36195;SDS011;22237;51.974;4.616;2023-04-10T12:47:41;11.57;;;4.50;;
36195;SDS011;22237;51.974;4.616;2023-04-10T12:50:11;4.88;;;3.75;;
36195;SDS011;22237;51.974;4.616;2023-04-10T12:52:38;7.07;;;3.88;;
36195;SDS011;22237;51.974;4.616;2023-04-10T12:55:11;8.23;;;4.32;;
36195;SDS011;22237;51.974;4.616;2023-04-10T12:57:37;7.43;;;4.30;;
36195;SDS011;22237;51.974;4.616;2023-04-10T13:00:03;9.77;;;4.40;;
36195;SDS011;22237;51.974;4.616;2023-04-10T13:02:29;12.32;;;3.95;;
36195;SDS011;22237;51.974;4.616;2023-04-10T13:04:54;5.57;;;3.20;;
36195;SDS011;22237;51.974;4.616;2023-04-10T13:07:20;6.80;;;3.50;;
36195;SDS011;22237;51.974;4.616;2023-04-10T13:09:45;9.40;;;4.17;;
36195;SDS011;22237;51.974;4.616;2023-04-10T13:12:11;8.40;;;4.53;;
36195;SDS011;22237;51.974;4.616;2023-04-10T13:14:36;7.90;;;3.40;;
36195;SDS011;22237;51.974;4.616;2023-04-10T13:17:01;6.45;;;4.70;;
36195;SDS011;22237;51.974;4.616;2023-04-10T13:19:27;7.82;;;3.88;;
36195;SDS011;22237;51.974;4.616;2023-04-10T13:21:52;5.35;;;3.45;;
36195;SDS011;22237;51.974;4.616;2023-04-10T13:24:17;8.75;;;4.60;;
36195;SDS011;22237;51.974;4.616;2023-04-10T13:26:42;7.53;;;4.68;;
36195;SDS011;22237;51.974;4.616;2023-04-10T13:29:08;9.13;;;5.25;;
36195;SDS011;22237;51.974;4.616;2023-04-10T13:31:33;9.77;;;4.57;;
36195;SDS011;22237;51.974;4.616;2023-04-10T13:33:58;9.02;;;4.40;;
36195;SDS011;22237;51.974;4.616;2023-04-10T13:36:24;7.80;;;4.73;;
36195;SDS011;22237;51.974;4.616;2023-04-10T13:38:50;9.77;;;4.70;;
36195;SDS011;22237;51.974;4.616;2023-04-10T13:41:15;7.53;;;4.05;;
36195;SDS011;22237;51.974;4.616;2023-04-10T13:43:40;8.52;;;3.50;;
36195;SDS011;22237;51.974;4.616;2023-04-10T13:46:05;6.97;;;3.77;;
36195;SDS011;22237;51.974;4.616;2023-04-10T13:48:31;7.78;;;3.78;;
36195;SDS011;22237;51.974;4.616;2023-04-10T13:50:56;4.38;;;3.22;;
36195;SDS011;22237;51.974;4.616;2023-04-10T13:53:21;3.05;;;2.25;;
36195;SDS011;22237;51.974;4.616;2023-04-10T13:55:46;7.13;;;3.50;;
36195;SDS011;22237;51.974;4.616;2023-04-10T13:58:14;4.75;;;2.85;;
36195;SDS011;22237;51.974;4.616;2023-04-10T14:00:41;7.32;;;3.65;;
36195;SDS011;22237;51.974;4.616;2023-04-10T14:03:06;7.28;;;3.90;;
36195;SDS011;22237;51.974;4.616;2023-04-10T14:05:34;5.55;;;3.40;;
36195;SDS011;22237;51.974;4.616;2023-04-10T14:07:59;7.18;;;4.18;;
36195;SDS011;22237;51.974;4.616;2023-04-10T14:10:24;8.57;;;3.83;;
36195;SDS011;22237;51.974;4.616;2023-04-10T14:12:50;9.23;;;4.30;;
36195;SDS011;22237;51.974;4.616;2023-04-10T14:15:15;6.88;;;4.03;;
36195;SDS011;22237;51.974;4.616;2023-04-10T14:17:40;6.40;;;3.17;;
36195;SDS011;22237;51.974;4.616;2023-04-10T14:20:06;8.50;;;3.97;;
36195;SDS011;22237;51.974;4.616;2023-04-10T14:22:31;5.70;;;3.42;;
36195;SDS011;22237;51.974;4.616;2023-04-10T14:24:56;9.43;;;4.53;;
36195;SDS011;22237;51.974;4.616;2023-04-10T14:27:24;9.38;;;4.03;;
36195;SDS011;22237;51.974;4.616;2023-04-10T14:29:49;6.80;;;4.22;;
36195;SDS011;22237;51.974;4.616;2023-04-10T14:32:15;8.97;;;4.37;;
36195;SDS011;22237;51.974;4.616;2023-04-10T14:34:40;7.97;;;3.40;;
36195;SDS011;22237;51.974;4.616;2023-04-10T14:37:05;9.57;;;4.60;;
36195;SDS011;22237;51.974;4.616;2023-04-10T14:39:31;6.78;;;3.55;;
36195;SDS011;22237;51.974;4.616;2023-04-10T14:41:57;12.73;;;4.82;;
36195;SDS011;22237;51.974;4.616;2023-04-10T14:44:22;8.60;;;5.23;;
36195;SDS011;22237;51.974;4.616;2023-04-10T14:46:48;8.87;;;4.80;;
36195;SDS011;22237;51.974;4.616;2023-04-10T14:49:13;8.63;;;4.25;;
36195;SDS011;22237;51.974;4.616;2023-04-10T14:51:41;14.38;;;5.45;;
36195;SDS011;22237;51.974;4.616;2023-04-10T14:54:06;6.30;;;3.88;;
36195;SDS011;22237;51.974;4.616;2023-04-10T14:56:32;7.20;;;4.80;;
36195;SDS011;22237;51.974;4.616;2023-04-10T14:58:57;7.60;;;4.20;;
36195;SDS011;22237;51.974;4.616;2023-04-10T15:01:22;7.43;;;4.20;;
36195;SDS011;22237;51.974;4.616;2023-04-10T15:03:47;5.77;;;3.83;;
36195;SDS011;22237;51.974;4.616;2023-04-10T15:06:13;7.63;;;4.47;;
36195;SDS011;22237;51.974;4.616;2023-04-10T15:08:38;6.72;;;3.95;;
36195;SDS011;22237;51.974;4.616;2023-04-10T15:11:03;6.57;;;3.87;;
36195;SDS011;22237;51.974;4.616;2023-04-10T15:13:31;6.55;;;3.20;;
36195;SDS011;22237;51.974;4.616;2023-04-10T15:15:56;11.45;;;5.20;;
36195;SDS011;22237;51.974;4.616;2023-04-10T15:18:22;8.23;;;3.97;;
36195;SDS011;22237;51.974;4.616;2023-04-10T15:20:49;6.57;;;3.90;;
36195;SDS011;22237;51.974;4.616;2023-04-10T15:23:14;13.75;;;5.95;;